sensor_id;sensor_type;location;lat;lon;timestamp;pressure;altitude;pressure_sealevel;temperature;humidity
83496;BME280;73431;40.794;43.836;2023-11-18T00:00:15;84512.44;;;5.31;54.58
83496;BME280;73431;40.794;43.836;2023-11-18T00:02:44;84507.53;;;5.33;55.91
83496;BME280;73431;40.794;43.836;2023-11-18T00:05:13;84505.56;;;5.24;55.76
83496;BME280;73431;40.794;43.836;2023-11-18T00:07:41;84509.84;;;5.18;54.89
83496;BME280;73431;40.794;43.836;2023-11-18T00:10:10;84495.16;;;5.12;55.65
83496;BME280;73431;40.794;43.836;2023-11-18T00:12:38;84497.75;;;5.24;55.02
83496;BME280;73431;40.794;43.836;2023-11-18T00:15:09;84491.88;;;5.33;56.29
83496;BME280;73431;40.794;43.836;2023-11-18T00:17:39;84497.94;;;5.30;54.75
83496;BME280;73431;40.794;43.836;2023-11-18T00:20:08;84498.16;;;5.36;55.22
83496;BME280;73431;40.794;43.836;2023-11-18T00:22:37;84494.78;;;5.48;54.64
83496;BME280;73431;40.794;43.836;2023-11-18T00:25:06;84505.94;;;5.61;54.26
83496;BME280;73431;40.794;43.836;2023-11-18T00:27:37;84505.00;;;5.67;54.31
83496;BME280;73431;40.794;43.836;2023-11-18T00:30:05;84494.44;;;5.71;53.87
83496;BME280;73431;40.794;43.836;2023-11-18T00:32:36;84484.59;;;5.75;54.12
83496;BME280;73431;40.794;43.836;2023-11-18T00:35:05;84481.47;;;5.80;53.67
83496;BME280;73431;40.794;43.836;2023-11-18T00:37:33;84479.88;;;5.82;53.98
83496;BME280;73431;40.794;43.836;2023-11-18T00:40:00;84479.78;;;5.86;54.43
83496;BME280;73431;40.794;43.836;2023-11-18T00:42:32;84477.09;;;5.77;54.28
83496;BME280;73431;40.794;43.836;2023-11-18T00:45:00;84476.69;;;5.66;53.61
83496;BME280;73431;40.794;43.836;2023-11-18T00:47:32;84479.28;;;5.66;54.55
83496;BME280;73431;40.794;43.836;2023-11-18T00:50:00;84468.78;;;5.57;54.83
83496;BME280;73431;40.794;43.836;2023-11-18T00:52:32;84476.63;;;5.44;54.22
83496;BME280;73431;40.794;43.836;2023-11-18T00:55:00;84478.84;;;5.33;57.38
83496;BME280;73431;40.794;43.836;2023-11-18T00:57:29;84476.38;;;5.17;55.62
83496;BME280;73431;40.794;43.836;2023-11-18T00:59:59;84485.16;;;5.10;55.24
83496;BME280;73431;40.794;43.836;2023-11-18T01:02:29;84480.97;;;5.13;56.13
83496;BME280;73431;40.794;43.836;2023-11-18T01:04:56;84486.59;;;5.11;56.02
83496;BME280;73431;40.794;43.836;2023-11-18T01:07:24;84494.75;;;5.01;55.83
83496;BME280;73431;40.794;43.836;2023-11-18T01:09:52;84493.47;;;4.93;56.58
83496;BME280;73431;40.794;43.836;2023-11-18T01:12:19;84488.81;;;4.88;56.50
83496;BME280;73431;40.794;43.836;2023-11-18T01:14:47;84487.44;;;4.83;55.49
83496;BME280;73431;40.794;43.836;2023-11-18T01:21:15;84483.97;;;4.61;57.14
83496;BME280;73431;40.794;43.836;2023-11-18T01:23:44;84480.34;;;4.58;57.25
83496;BME280;73431;40.794;43.836;2023-11-18T01:26:12;84474.09;;;4.56;57.56
83496;BME280;73431;40.794;43.836;2023-11-18T01:28:40;84482.72;;;4.53;57.00
83496;BME280;73431;40.794;43.836;2023-11-18T01:31:12;84472.31;;;4.53;56.63
83496;BME280;73431;40.794;43.836;2023-11-18T01:33:40;84481.34;;;4.48;58.46
83496;BME280;73431;40.794;43.836;2023-11-18T01:36:08;84480.41;;;4.42;57.14
83496;BME280;73431;40.794;43.836;2023-11-18T01:38:37;84481.66;;;4.38;58.18
83496;BME280;73431;40.794;43.836;2023-11-18T01:41:05;84485.41;;;4.37;57.13
83496;BME280;73431;40.794;43.836;2023-11-18T01:43:33;84482.81;;;4.37;56.96
83496;BME280;73431;40.794;43.836;2023-11-18T01:46:03;84473.81;;;4.25;56.52
83496;BME280;73431;40.794;43.836;2023-11-18T01:48:32;84487.81;;;4.44;56.33
83496;BME280;73431;40.794;43.836;2023-11-18T01:51:06;84483.03;;;4.55;56.62
83496;BME280;73431;40.794;43.836;2023-11-18T01:53:36;84477.53;;;4.53;56.24
83496;BME280;73431;40.794;43.836;2023-11-18T01:56:06;84481.88;;;4.43;56.93
83496;BME280;73431;40.794;43.836;2023-11-18T01:58:37;84484.16;;;4.41;58.04
83496;BME280;73431;40.794;43.836;2023-11-18T02:01:04;84484.50;;;4.43;57.13
83496;BME280;73431;40.794;43.836;2023-11-18T02:03:35;84488.13;;;4.46;57.23
83496;BME280;73431;40.794;43.836;2023-11-18T02:06:04;84468.44;;;4.45;57.27
83496;BME280;73431;40.794;43.836;2023-11-18T02:08:33;84483.44;;;4.53;57.07
83496;BME280;73431;40.794;43.836;2023-11-18T02:13:48;84468.78;;;4.85;56.19
83496;BME280;73431;40.794;43.836;2023-11-18T02:16:19;84464.06;;;4.92;55.68
83496;BME280;73431;40.794;43.836;2023-11-18T02:18:48;84471.69;;;4.99;56.01
83496;BME280;73431;40.794;43.836;2023-11-18T02:21:17;84457.91;;;4.99;56.57
83496;BME280;73431;40.794;43.836;2023-11-18T02:23:47;84451.56;;;4.87;56.46
83496;BME280;73431;40.794;43.836;2023-11-18T02:26:22;84455.09;;;4.80;58.20
83496;BME280;73431;40.794;43.836;2023-11-18T02:28:50;84391.09;;;4.42;56.82
83496;BME280;73431;40.794;43.836;2023-11-18T02:31:27;84471.25;;;4.75;58.42
83496;BME280;73431;40.794;43.836;2023-11-18T02:34:05;84468.13;;;4.68;58.44
83496;BME280;73431;40.794;43.836;2023-11-18T02:36:39;84461.34;;;4.58;58.39
83496;BME280;73431;40.794;43.836;2023-11-18T02:39:12;84462.41;;;4.60;58.28
83496;BME280;73431;40.794;43.836;2023-11-18T02:41:47;84461.25;;;4.61;58.04
83496;BME280;73431;40.794;43.836;2023-11-18T02:44:17;84472.81;;;4.60;57.13
83496;BME280;73431;40.794;43.836;2023-11-18T02:46:47;84469.47;;;4.60;58.59
83496;BME280;73431;40.794;43.836;2023-11-18T02:49:16;84465.94;;;4.66;57.18
83496;BME280;73431;40.794;43.836;2023-11-18T02:51:44;84461.47;;;4.67;58.59
83496;BME280;73431;40.794;43.836;2023-11-18T02:54:15;84468.03;;;4.71;57.22
83496;BME280;73431;40.794;43.836;2023-11-18T02:56:43;84473.47;;;4.77;56.98
83496;BME280;73431;40.794;43.836;2023-11-18T02:59:11;84480.75;;;4.82;57.66
83496;BME280;73431;40.794;43.836;2023-11-18T03:01:39;84470.94;;;4.86;57.74
83496;BME280;73431;40.794;43.836;2023-11-18T03:04:07;84472.00;;;4.89;57.60
83496;BME280;73431;40.794;43.836;2023-11-18T03:06:36;84417.69;;;4.49;57.70
83496;BME280;73431;40.794;43.836;2023-11-18T03:09:03;84463.88;;;4.87;57.33
83496;BME280;73431;40.794;43.836;2023-11-18T03:11:34;84465.00;;;4.86;58.12
83496;BME280;73431;40.794;43.836;2023-11-18T03:14:02;84472.53;;;4.84;57.05
83496;BME280;73431;40.794;43.836;2023-11-18T03:16:32;84480.25;;;4.87;57.20
83496;BME280;73431;40.794;43.836;2023-11-18T03:19:01;84471.97;;;5.01;57.44
83496;BME280;73431;40.794;43.836;2023-11-18T03:21:28;84469.50;;;5.10;57.61
83496;BME280;73431;40.794;43.836;2023-11-18T03:23:56;84462.72;;;5.13;56.40
83496;BME280;73431;40.794;43.836;2023-11-18T03:26:24;84463.81;;;5.24;55.57
83496;BME280;73431;40.794;43.836;2023-11-18T03:28:53;84459.88;;;5.32;55.84
83496;BME280;73431;40.794;43.836;2023-11-18T03:31:20;84450.03;;;5.37;55.62
83496;BME280;73431;40.794;43.836;2023-11-18T03:33:48;84449.13;;;5.18;55.42
83496;BME280;73431;40.794;43.836;2023-11-18T03:36:16;84462.88;;;5.31;55.76
83496;BME280;73431;40.794;43.836;2023-11-18T03:38:44;84468.00;;;5.22;56.14
83496;BME280;73431;40.794;43.836;2023-11-18T03:41:12;84478.13;;;4.95;56.74
83496;BME280;73431;40.794;43.836;2023-11-18T03:43:40;84477.94;;;4.76;56.68
83496;BME280;73431;40.794;43.836;2023-11-18T03:46:08;84478.78;;;4.73;58.24
83496;BME280;73431;40.794;43.836;2023-11-18T03:48:35;84482.84;;;4.62;57.26
83496;BME280;73431;40.794;43.836;2023-11-18T03:51:06;84481.91;;;4.56;56.84
83496;BME280;73431;40.794;43.836;2023-11-18T03:53:34;84491.16;;;4.69;57.01
83496;BME280;73431;40.794;43.836;2023-11-18T03:56:01;84494.72;;;4.63;58.18
83496;BME280;73431;40.794;43.836;2023-11-18T03:58:29;84486.97;;;4.47;57.51
83496;BME280;73431;40.794;43.836;2023-11-18T04:01:01;84489.28;;;4.45;57.64
83496;BME280;73431;40.794;43.836;2023-11-18T04:03:29;84480.91;;;4.37;58.30
83496;BME280;73431;40.794;43.836;2023-11-18T04:05:56;84486.56;;;4.36;57.81
83496;BME280;73431;40.794;43.836;2023-11-18T04:08:24;84490.91;;;4.26;57.10
83496;BME280;73431;40.794;43.836;2023-11-18T04:10:52;84490.69;;;4.20;57.82
83496;BME280;73431;40.794;43.836;2023-11-18T04:13:20;84495.81;;;4.24;58.91
83496;BME280;73431;40.794;43.836;2023-11-18T04:15:48;84497.25;;;4.25;57.64
83496;BME280;73431;40.794;43.836;2023-11-18T04:18:15;84490.59;;;4.24;58.60
83496;BME280;73431;40.794;43.836;2023-11-18T04:20:43;84494.66;;;4.25;57.31
83496;BME280;73431;40.794;43.836;2023-11-18T04:23:11;84500.81;;;4.31;58.14
83496;BME280;73431;40.794;43.836;2023-11-18T04:25:39;84493.13;;;4.40;58.03
83496;BME280;73431;40.794;43.836;2023-11-18T04:28:07;84486.25;;;4.46;57.60
83496;BME280;73431;40.794;43.836;2023-11-18T04:30:34;84483.13;;;4.51;58.28
83496;BME280;73431;40.794;43.836;2023-11-18T04:33:02;84491.16;;;4.57;57.01
83496;BME280;73431;40.794;43.836;2023-11-18T04:35:29;84498.47;;;4.62;56.73
83496;BME280;73431;40.794;43.836;2023-11-18T04:37:58;84495.03;;;4.65;57.13
83496;BME280;73431;40.794;43.836;2023-11-18T04:40:26;84498.59;;;4.71;56.52
83496;BME280;73431;40.794;43.836;2023-11-18T04:42:54;84502.13;;;4.77;57.99
83496;BME280;73431;40.794;43.836;2023-11-18T04:45:22;84503.06;;;4.83;57.14
83496;BME280;73431;40.794;43.836;2023-11-18T04:47:50;84508.72;;;4.94;57.10
83496;BME280;73431;40.794;43.836;2023-11-18T04:50:20;84502.44;;;5.04;56.87
83496;BME280;73431;40.794;43.836;2023-11-18T04:52:47;84501.50;;;5.11;56.12
83496;BME280;73431;40.794;43.836;2023-11-18T04:55:16;84508.47;;;5.26;56.29
83496;BME280;73431;40.794;43.836;2023-11-18T04:57:44;84503.38;;;5.36;57.02
83496;BME280;73431;40.794;43.836;2023-11-18T05:00:12;84501.38;;;5.40;56.20
83496;BME280;73431;40.794;43.836;2023-11-18T05:02:45;84514.41;;;5.52;56.21
83496;BME280;73431;40.794;43.836;2023-11-18T05:05:16;84505.50;;;5.62;56.11
83496;BME280;73431;40.794;43.836;2023-11-18T05:07:44;84506.63;;;5.87;56.19
83496;BME280;73431;40.794;43.836;2023-11-18T05:10:12;84507.81;;;6.07;55.53
83496;BME280;73431;40.794;43.836;2023-11-18T05:12:39;84507.13;;;6.28;54.46
83496;BME280;73431;40.794;43.836;2023-11-18T05:15:07;84515.81;;;6.47;54.17
83496;BME280;73431;40.794;43.836;2023-11-18T05:17:38;84514.47;;;6.64;53.60
83496;BME280;73431;40.794;43.836;2023-11-18T05:20:06;84515.44;;;6.79;53.26
83496;BME280;73431;40.794;43.836;2023-11-18T05:22:38;84508.94;;;6.93;53.26
83496;BME280;73431;40.794;43.836;2023-11-18T05:25:06;84510.47;;;7.03;53.11
83496;BME280;73431;40.794;43.836;2023-11-18T05:27:37;84514.28;;;7.11;52.67
83496;BME280;73431;40.794;43.836;2023-11-18T05:30:08;84516.19;;;7.11;52.53
83496;BME280;73431;40.794;43.836;2023-11-18T05:32:36;84500.22;;;7.18;52.82
83496;BME280;73431;40.794;43.836;2023-11-18T05:35:04;84486.66;;;7.10;52.23
83496;BME280;73431;40.794;43.836;2023-11-18T05:37:32;84503.41;;;7.22;53.34
83496;BME280;73431;40.794;43.836;2023-11-18T05:40:05;84505.34;;;7.30;53.22
83496;BME280;73431;40.794;43.836;2023-11-18T05:42:34;84508.75;;;7.40;53.13
83496;BME280;73431;40.794;43.836;2023-11-18T05:45:07;84504.69;;;7.48;52.88
83496;BME280;73431;40.794;43.836;2023-11-18T05:47:36;84512.81;;;7.50;52.55
83496;BME280;73431;40.794;43.836;2023-11-18T05:50:04;84513.56;;;7.51;52.58
83496;BME280;73431;40.794;43.836;2023-11-18T05:52:33;84507.19;;;7.61;52.84
83496;BME280;73431;40.794;43.836;2023-11-18T05:55:01;84522.25;;;7.78;52.41
83496;BME280;73431;40.794;43.836;2023-11-18T05:57:29;84510.72;;;7.85;52.33
83496;BME280;73431;40.794;43.836;2023-11-18T05:59:56;84510.59;;;7.88;52.12
83496;BME280;73431;40.794;43.836;2023-11-18T06:02:24;84511.47;;;7.85;51.40
83496;BME280;73431;40.794;43.836;2023-11-18T06:04:52;84526.19;;;7.92;51.65
83496;BME280;73431;40.794;43.836;2023-11-18T06:07:21;84524.13;;;7.87;52.10
83496;BME280;73431;40.794;43.836;2023-11-18T06:09:50;84526.78;;;8.05;52.67
83496;BME280;73431;40.794;43.836;2023-11-18T06:12:18;84521.00;;;8.19;51.98
83496;BME280;73431;40.794;43.836;2023-11-18T06:14:45;84510.94;;;8.27;51.92
83496;BME280;73431;40.794;43.836;2023-11-18T06:17:14;84509.09;;;8.45;52.25
83496;BME280;73431;40.794;43.836;2023-11-18T06:19:42;84510.25;;;8.63;50.87
83496;BME280;73431;40.794;43.836;2023-11-18T06:22:10;84500.34;;;8.67;51.53
83496;BME280;73431;40.794;43.836;2023-11-18T06:24:38;84502.53;;;8.59;51.11
83496;BME280;73431;40.794;43.836;2023-11-18T06:27:07;84509.09;;;8.64;51.25
83496;BME280;73431;40.794;43.836;2023-11-18T06:29:37;84514.03;;;8.80;50.96
83496;BME280;73431;40.794;43.836;2023-11-18T06:32:05;84505.09;;;8.95;50.48
83496;BME280;73431;40.794;43.836;2023-11-18T06:34:33;84509.78;;;8.82;50.56
83496;BME280;73431;40.794;43.836;2023-11-18T06:37:01;84512.13;;;8.71;51.38
83496;BME280;73431;40.794;43.836;2023-11-18T06:39:28;84513.59;;;8.63;51.08
83496;BME280;73431;40.794;43.836;2023-11-18T06:41:57;84507.47;;;8.57;51.56
83496;BME280;73431;40.794;43.836;2023-11-18T06:44:25;84507.78;;;8.50;51.04
83496;BME280;73431;40.794;43.836;2023-11-18T06:46:53;84509.38;;;8.57;50.91
83496;BME280;73431;40.794;43.836;2023-11-18T06:49:21;84486.94;;;8.46;51.20
83496;BME280;73431;40.794;43.836;2023-11-18T06:51:48;84515.75;;;8.92;51.94
83496;BME280;73431;40.794;43.836;2023-11-18T06:54:16;84518.94;;;9.05;51.09
83496;BME280;73431;40.794;43.836;2023-11-18T06:56:44;84507.38;;;9.21;51.59
83496;BME280;73431;40.794;43.836;2023-11-18T06:59:13;84495.38;;;9.29;51.30
83496;BME280;73431;40.794;43.836;2023-11-18T07:01:43;84509.03;;;9.51;51.70
83496;BME280;73431;40.794;43.836;2023-11-18T07:04:13;84506.81;;;9.58;51.37
83496;BME280;73431;40.794;43.836;2023-11-18T07:06:43;84513.94;;;9.67;51.33
83496;BME280;73431;40.794;43.836;2023-11-18T07:09:12;84499.47;;;9.72;50.75
83496;BME280;73431;40.794;43.836;2023-11-18T07:11:49;84497.28;;;9.70;50.81
83496;BME280;73431;40.794;43.836;2023-11-18T07:14:19;84501.78;;;9.79;51.24
83496;BME280;73431;40.794;43.836;2023-11-18T07:16:47;84503.63;;;9.87;51.14
83496;BME280;73431;40.794;43.836;2023-11-18T07:19:15;84496.53;;;9.79;50.73
83496;BME280;73431;40.794;43.836;2023-11-18T07:21:49;84505.00;;;9.74;51.35
83496;BME280;73431;40.794;43.836;2023-11-18T07:24:18;84496.53;;;9.79;51.65
83496;BME280;73431;40.794;43.836;2023-11-18T07:26:48;84504.59;;;9.99;51.10
83496;BME280;73431;40.794;43.836;2023-11-18T07:29:18;84501.03;;;10.11;50.88
83496;BME280;73431;40.794;43.836;2023-11-18T07:31:46;84492.78;;;10.27;50.27
83496;BME280;73431;40.794;43.836;2023-11-18T07:34:15;84484.59;;;10.25;49.62
83496;BME280;73431;40.794;43.836;2023-11-18T07:36:42;84489.13;;;10.25;49.73
83496;BME280;73431;40.794;43.836;2023-11-18T07:39:14;84484.03;;;10.21;49.08
83496;BME280;73431;40.794;43.836;2023-11-18T07:41:52;84484.59;;;10.25;50.19
83496;BME280;73431;40.794;43.836;2023-11-18T07:44:28;84475.59;;;10.17;49.38
83496;BME280;73431;40.794;43.836;2023-11-18T07:46:56;84483.34;;;10.11;49.81
83496;BME280;73431;40.794;43.836;2023-11-18T07:49:23;84470.91;;;10.12;50.02
83496;BME280;73431;40.794;43.836;2023-11-18T07:51:53;84468.00;;;10.19;49.17
83496;BME280;73431;40.794;43.836;2023-11-18T07:54:21;84462.16;;;10.15;49.99
83496;BME280;73431;40.794;43.836;2023-11-18T07:56:49;84459.19;;;10.22;49.25
83496;BME280;73431;40.794;43.836;2023-11-18T07:59:17;84460.50;;;10.27;49.08
83496;BME280;73431;40.794;43.836;2023-11-18T08:01:45;84455.59;;;10.34;49.38
83496;BME280;73431;40.794;43.836;2023-11-18T08:04:14;84452.97;;;10.34;49.13
83496;BME280;73431;40.794;43.836;2023-11-18T08:06:41;84455.00;;;10.39;50.23
83496;BME280;73431;40.794;43.836;2023-11-18T08:09:10;84443.34;;;10.31;48.35
83496;BME280;73431;40.794;43.836;2023-11-18T08:11:40;84450.16;;;10.23;50.03
83496;BME280;73431;40.794;43.836;2023-11-18T08:14:10;84448.38;;;9.96;48.22
83496;BME280;73431;40.794;43.836;2023-11-18T08:16:38;84435.28;;;9.87;49.55
83496;BME280;73431;40.794;43.836;2023-11-18T08:19:05;84440.34;;;10.00;49.46
83496;BME280;73431;40.794;43.836;2023-11-18T08:21:35;84438.16;;;10.22;49.44
83496;BME280;73431;40.794;43.836;2023-11-18T08:24:06;84434.94;;;10.42;49.32
83496;BME280;73431;40.794;43.836;2023-11-18T08:26:35;84439.53;;;10.71;49.14
83496;BME280;73431;40.794;43.836;2023-11-18T08:29:03;84439.53;;;10.85;48.74
83496;BME280;73431;40.794;43.836;2023-11-18T08:31:34;84436.28;;;11.05;48.15
83496;BME280;73431;40.794;43.836;2023-11-18T08:34:02;84425.31;;;11.06;47.82
83496;BME280;73431;40.794;43.836;2023-11-18T08:36:32;84429.38;;;10.93;48.36
83496;BME280;73431;40.794;43.836;2023-11-18T08:39:01;84428.66;;;10.78;47.65
83496;BME280;73431;40.794;43.836;2023-11-18T08:41:29;84420.13;;;10.68;48.28
83496;BME280;73431;40.794;43.836;2023-11-18T08:43:58;84418.09;;;10.63;49.12
83496;BME280;73431;40.794;43.836;2023-11-18T08:46:47;84411.41;;;10.62;49.12
83496;BME280;73431;40.794;43.836;2023-11-18T08:49:15;84412.22;;;10.68;48.92
83496;BME280;73431;40.794;43.836;2023-11-18T08:51:49;84401.63;;;10.77;48.62
83496;BME280;73431;40.794;43.836;2023-11-18T08:54:24;84397.34;;;10.80;47.63
83496;BME280;73431;40.794;43.836;2023-11-18T08:57:04;84406.88;;;10.92;47.28
83496;BME280;73431;40.794;43.836;2023-11-18T08:59:59;84406.50;;;10.99;47.58
83496;BME280;73431;40.794;43.836;2023-11-18T09:02:29;84394.25;;;10.96;48.91
83496;BME280;73431;40.794;43.836;2023-11-18T09:05:13;84383.19;;;11.06;48.47
83496;BME280;73431;40.794;43.836;2023-11-18T09:07:40;84402.22;;;11.31;45.94
83496;BME280;73431;40.794;43.836;2023-11-18T09:10:10;84402.28;;;11.51;47.65
83496;BME280;73431;40.794;43.836;2023-11-18T09:12:39;84405.69;;;11.72;47.57
83496;BME280;73431;40.794;43.836;2023-11-18T09:15:12;84394.94;;;11.90;46.53
83496;BME280;73431;40.794;43.836;2023-11-18T09:17:49;84403.78;;;11.87;46.03
83496;BME280;73431;40.794;43.836;2023-11-18T09:20:17;84394.53;;;11.62;45.40
83496;BME280;73431;40.794;43.836;2023-11-18T09:22:48;84399.78;;;11.77;47.21
83496;BME280;73431;40.794;43.836;2023-11-18T09:25:16;84390.53;;;12.01;47.50
83496;BME280;73431;40.794;43.836;2023-11-18T09:27:45;84408.84;;;12.10;45.92
83496;BME280;73431;40.794;43.836;2023-11-18T09:30:13;84399.75;;;12.11;44.93
83496;BME280;73431;40.794;43.836;2023-11-18T09:32:41;84399.34;;;11.98;45.78
83496;BME280;73431;40.794;43.836;2023-11-18T09:35:09;84402.56;;;11.88;46.34
83496;BME280;73431;40.794;43.836;2023-11-18T09:37:39;84396.06;;;11.83;46.09
83496;BME280;73431;40.794;43.836;2023-11-18T09:40:14;84400.06;;;11.79;46.20
83496;BME280;73431;40.794;43.836;2023-11-18T09:42:41;84393.31;;;11.78;46.20
83496;BME280;73431;40.794;43.836;2023-11-18T09:45:11;84403.34;;;11.74;46.67
83496;BME280;73431;40.794;43.836;2023-11-18T09:47:43;84399.50;;;11.75;46.52
83496;BME280;73431;40.794;43.836;2023-11-18T09:50:17;84399.13;;;11.82;45.32
83496;BME280;73431;40.794;43.836;2023-11-18T09:52:49;84394.41;;;11.86;45.80
83496;BME280;73431;40.794;43.836;2023-11-18T09:55:38;84393.94;;;12.07;45.37
83496;BME280;73431;40.794;43.836;2023-11-18T09:58:15;84383.22;;;12.31;46.30
83496;BME280;73431;40.794;43.836;2023-11-18T10:00:48;84382.44;;;12.51;45.17
83496;BME280;73431;40.794;43.836;2023-11-18T10:03:21;84377.91;;;12.77;45.55
83496;BME280;73431;40.794;43.836;2023-11-18T10:05:51;84386.94;;;12.91;44.92
83496;BME280;73431;40.794;43.836;2023-11-18T10:08:22;84380.00;;;13.19;45.27
83496;BME280;73431;40.794;43.836;2023-11-18T10:10:53;84379.00;;;13.42;45.00
83496;BME280;73431;40.794;43.836;2023-11-18T10:13:32;84375.28;;;13.60;43.71
83496;BME280;73431;40.794;43.836;2023-11-18T10:16:02;84359.28;;;13.74;44.76
83496;BME280;73431;40.794;43.836;2023-11-18T10:18:32;84367.59;;;13.99;44.33
83496;BME280;73431;40.794;43.836;2023-11-18T10:21:04;84361.69;;;14.20;43.10
83496;BME280;73431;40.794;43.836;2023-11-18T10:23:35;84356.59;;;14.17;42.71
83496;BME280;73431;40.794;43.836;2023-11-18T10:26:05;84363.97;;;13.96;41.41
83496;BME280;73431;40.794;43.836;2023-11-18T10:28:36;84363.91;;;13.48;42.14
83496;BME280;73431;40.794;43.836;2023-11-18T10:31:07;84373.91;;;13.33;40.83
83496;BME280;73431;40.794;43.836;2023-11-18T10:33:39;84365.19;;;13.27;42.82
83496;BME280;73431;40.794;43.836;2023-11-18T10:36:20;84357.69;;;13.20;40.66
83496;BME280;73431;40.794;43.836;2023-11-18T10:38:52;84358.34;;;13.15;40.95
83496;BME280;73431;40.794;43.836;2023-11-18T10:41:24;84336.38;;;13.03;41.36
83496;BME280;73431;40.794;43.836;2023-11-18T10:44:07;84345.41;;;13.17;40.84
83496;BME280;73431;40.794;43.836;2023-11-18T10:46:51;84327.38;;;13.15;41.20
83496;BME280;73431;40.794;43.836;2023-11-18T10:49:20;84345.69;;;13.24;41.58
83496;BME280;73431;40.794;43.836;2023-11-18T10:51:51;84337.69;;;13.45;43.29
83496;BME280;73431;40.794;43.836;2023-11-18T10:54:19;84344.84;;;13.75;41.10
83496;BME280;73431;40.794;43.836;2023-11-18T10:56:48;84346.84;;;13.92;40.37
83496;BME280;73431;40.794;43.836;2023-11-18T10:59:16;84351.16;;;13.84;38.55
83496;BME280;73431;40.794;43.836;2023-11-18T11:01:46;84351.91;;;13.90;36.98
83496;BME280;73431;40.794;43.836;2023-11-18T11:04:17;84356.50;;;13.95;38.34
83496;BME280;73431;40.794;43.836;2023-11-18T11:06:49;84349.56;;;14.03;38.91
83496;BME280;73431;40.794;43.836;2023-11-18T11:09:22;84347.66;;;14.03;38.54
83496;BME280;73431;40.794;43.836;2023-11-18T11:12:10;84348.13;;;14.07;38.12
83496;BME280;73431;40.794;43.836;2023-11-18T11:14:50;84337.34;;;14.11;36.74
83496;BME280;73431;40.794;43.836;2023-11-18T11:17:23;84320.94;;;14.01;38.59
83496;BME280;73431;40.794;43.836;2023-11-18T11:22:51;84274.44;;;13.78;36.78
83496;BME280;73431;40.794;43.836;2023-11-18T11:25:42;84331.31;;;14.10;36.83
83496;BME280;73431;40.794;43.836;2023-11-18T11:28:20;84343.53;;;13.97;36.40
83496;BME280;73431;40.794;43.836;2023-11-18T11:30:50;84342.72;;;13.85;38.04
83496;BME280;73431;40.794;43.836;2023-11-18T11:33:39;84342.50;;;13.83;36.83
83496;BME280;73431;40.794;43.836;2023-11-18T11:36:12;84342.72;;;13.79;37.47
83496;BME280;73431;40.794;43.836;2023-11-18T11:38:43;84338.13;;;13.74;37.65
83496;BME280;73431;40.794;43.836;2023-11-18T11:41:14;84337.84;;;13.72;38.22
83496;BME280;73431;40.794;43.836;2023-11-18T11:43:53;84331.88;;;13.72;38.59
83496;BME280;73431;40.794;43.836;2023-11-18T11:46:26;84326.09;;;13.73;39.26
83496;BME280;73431;40.794;43.836;2023-11-18T11:49:04;84329.22;;;13.72;37.76
83496;BME280;73431;40.794;43.836;2023-11-18T11:51:48;84335.41;;;13.63;38.36
83496;BME280;73431;40.794;43.836;2023-11-18T11:54:22;84335.34;;;13.52;37.23
83496;BME280;73431;40.794;43.836;2023-11-18T11:56:51;84325.72;;;13.49;39.37
83496;BME280;73431;40.794;43.836;2023-11-18T12:02:23;84327.91;;;13.56;39.15
83496;BME280;73431;40.794;43.836;2023-11-18T12:04:55;84329.34;;;13.57;39.45
83496;BME280;73431;40.794;43.836;2023-11-18T12:07:26;84317.81;;;13.55;38.99
83496;BME280;73431;40.794;43.836;2023-11-18T12:09:59;84311.47;;;13.41;38.80
83496;BME280;73431;40.794;43.836;2023-11-18T12:12:29;84327.53;;;13.38;39.57
83496;BME280;73431;40.794;43.836;2023-11-18T12:14:58;84329.81;;;13.19;37.38
83496;BME280;73431;40.794;43.836;2023-11-18T12:20:38;84342.59;;;13.00;38.62
83496;BME280;73431;40.794;43.836;2023-11-18T12:23:15;84336.56;;;12.94;39.91
83496;BME280;73431;40.794;43.836;2023-11-18T12:25:45;84346.38;;;12.94;39.58
83496;BME280;73431;40.794;43.836;2023-11-18T12:31:39;84337.78;;;12.99;39.95
83496;BME280;73431;40.794;43.836;2023-11-18T12:34:12;84352.00;;;13.01;39.76
83496;BME280;73431;40.794;43.836;2023-11-18T12:39:53;84350.50;;;12.95;40.02
83496;BME280;73431;40.794;43.836;2023-11-18T12:43:02;84350.38;;;12.84;39.20
83496;BME280;73431;40.794;43.836;2023-11-18T12:48:23;84356.75;;;12.71;39.89
83496;BME280;73431;40.794;43.836;2023-11-18T12:50:55;84363.69;;;12.69;40.90
83496;BME280;73431;40.794;43.836;2023-11-18T12:53:26;84355.72;;;12.63;40.73
83496;BME280;73431;40.794;43.836;2023-11-18T12:55:57;84335.16;;;12.47;41.59
83496;BME280;73431;40.794;43.836;2023-11-18T12:58:26;84350.56;;;12.54;41.56
83496;BME280;73431;40.794;43.836;2023-11-18T13:00:54;84323.19;;;12.26;41.55
83496;BME280;73431;40.794;43.836;2023-11-18T13:03:21;84355.03;;;12.43;41.18
83496;BME280;73431;40.794;43.836;2023-11-18T13:05:49;84350.81;;;12.31;41.90
83496;BME280;73431;40.794;43.836;2023-11-18T13:08:20;84358.00;;;12.30;41.94
83496;BME280;73431;40.794;43.836;2023-11-18T13:10:50;84348.03;;;12.19;42.11
83496;BME280;73431;40.794;43.836;2023-11-18T13:13:18;84354.19;;;12.11;42.25
83496;BME280;73431;40.794;43.836;2023-11-18T13:15:47;84353.41;;;12.05;42.47
83496;BME280;73431;40.794;43.836;2023-11-18T13:18:17;84352.88;;;12.01;41.90
83496;BME280;73431;40.794;43.836;2023-11-18T13:20:55;84360.25;;;11.97;41.75
83496;BME280;73431;40.794;43.836;2023-11-18T13:23:26;84350.03;;;11.84;42.39
83496;BME280;73431;40.794;43.836;2023-11-18T13:25:55;84350.50;;;11.83;42.40
83496;BME280;73431;40.794;43.836;2023-11-18T13:28:24;84357.34;;;11.75;42.72
83496;BME280;73431;40.794;43.836;2023-11-18T13:30:52;84351.84;;;11.58;42.76
83496;BME280;73431;40.794;43.836;2023-11-18T13:33:19;84349.22;;;11.43;43.89
83496;BME280;73431;40.794;43.836;2023-11-18T13:35:49;84346.16;;;11.30;43.47